Time;durP1;ratioP1;P1;durP2;ratioP2;P2;SDS_P1;SDS_P2;PMS_P1;PMS_P2;Temp;Humidity;BMP_temperature;BMP_pressure;BME280_temperature;BME280_humidity;BME280_pressure;Samples;Min_cycle;Max_cycle;Signal;HPM_P1;HPM_P2
2024/03/29 00:00:44;;;;;;;1.58;0.63;;;;;;;;;;5085292;28;20095;-56
2024/03/29 00:03:10;;;;;;;1.73;0.50;;;;;;;;;;5082725;28;20154;-56
2024/03/29 00:05:36;;;;;;;2.20;1.10;;;;;;;;;;5092163;28;20458;-56
2024/03/29 00:08:02;;;;;;;7.18;0.70;;;;;;;;;;5084780;28;20016;-56
2024/03/29 00:10:28;;;;;;;0.47;0.40;;;;;;;;;;5090772;28;20027;-55
2024/03/29 00:12:54;;;;;;;3.13;0.40;;;;;;;;;;5089839;28;20755;-55
2024/03/29 00:15:20;;;;;;;3.03;0.40;;;;;;;;;;5091359;28;20032;-55
2024/03/29 00:17:46;;;;;;;1.35;0.43;;;;;;;;;;5091621;28;20078;-56
2024/03/29 00:20:12;;;;;;;1.38;0.40;;;;;;;;;;5098111;28;20032;-56
2024/03/29 00:22:39;;;;;;;1.58;0.35;;;;;;;;;;5086733;28;20751;-55
2024/03/29 00:25:05;;;;;;;2.75;0.60;;;;;;;;;;5091616;28;20073;-55
2024/03/29 00:27:32;;;;;;;3.40;0.77;;;;;;;;;;5086573;28;20036;-55
2024/03/29 00:29:58;;;;;;;2.78;0.50;;;;;;;;;;5091437;28;20451;-56
2024/03/29 00:32:24;;;;;;;1.77;0.38;;;;;;;;;;5093246;28;20036;-55
2024/03/29 00:34:51;;;;;;;0.90;0.55;;;;;;;;;;5093037;28;20036;-55
2024/03/29 00:37:17;;;;;;;3.67;0.60;;;;;;;;;;5089946;28;20076;-55
2024/03/29 00:39:43;;;;;;;1.98;0.57;;;;;;;;;;5087749;28;20089;-55
2024/03/29 00:42:12;;;;;;;1.58;0.77;;;;;;;;;;5088652;28;20102;-56
2024/03/29 00:44:38;;;;;;;2.47;0.50;;;;;;;;;;5092789;28;20392;-56
2024/03/29 00:47:05;;;;;;;2.47;0.57;;;;;;;;;;5115609;28;20020;-55
2024/03/29 00:49:31;;;;;;;2.00;0.60;;;;;;;;;;5104308;28;20032;-56
2024/03/29 00:51:57;;;;;;;0.88;0.50;;;;;;;;;;5095139;28;20476;-56
2024/03/29 00:54:23;;;;;;;2.97;0.70;;;;;;;;;;5094577;28;20134;-56
2024/03/29 00:56:49;;;;;;;1.10;0.75;;;;;;;;;;5088805;28;20488;-56
2024/03/29 00:59:15;;;;;;;2.20;1.02;;;;;;;;;;5085706;28;20039;-56
2024/03/29 01:01:41;;;;;;;1.60;0.65;;;;;;;;;;5094569;28;20024;-56
2024/03/29 01:04:08;;;;;;;1.08;0.50;;;;;;;;;;5094528;28;20119;-56
2024/03/29 01:06:34;;;;;;;1.38;0.60;;;;;;;;;;5093555;28;20032;-55
2024/03/29 01:09:00;;;;;;;3.58;0.75;;;;;;;;;;5093929;28;20051;-59
2024/03/29 01:11:26;;;;;;;4.15;0.80;;;;;;;;;;5094009;28;20032;-59
2024/03/29 01:13:53;;;;;;;2.85;0.63;;;;;;;;;;5094113;28;20091;-59
2024/03/29 01:16:19;;;;;;;8.65;0.63;;;;;;;;;;5093342;28;20053;-59
2024/03/29 01:18:45;;;;;;;2.05;0.70;;;;;;;;;;5093145;28;20032;-55
2024/03/29 01:21:12;;;;;;;1.65;0.98;;;;;;;;;;5092663;28;20107;-54
2024/03/29 01:23:39;;;;;;;6.30;0.80;;;;;;;;;;5084791;28;20162;-52
2024/03/29 01:26:05;;;;;;;5.10;0.70;;;;;;;;;;5083961;28;20051;-56
2024/03/29 01:28:31;;;;;;;1.15;0.88;;;;;;;;;;5094690;28;20027;-52
2024/03/29 01:30:58;;;;;;;1.30;0.68;;;;;;;;;;5086108;28;20040;-53
2024/03/29 01:33:24;;;;;;;1.38;0.50;;;;;;;;;;5090743;28;20024;-53
2024/03/29 01:35:50;;;;;;;1.80;0.85;;;;;;;;;;5085116;28;20047;-52
2024/03/29 01:38:16;;;;;;;3.28;0.95;;;;;;;;;;5094673;28;20036;-54
2024/03/29 01:40:42;;;;;;;1.73;0.77;;;;;;;;;;5099786;28;20104;-52
2024/03/29 01:43:08;;;;;;;4.20;0.77;;;;;;;;;;5093602;28;20479;-53
2024/03/29 01:45:36;;;;;;;2.13;1.02;;;;;;;;;;5093073;28;20028;-53
2024/03/29 01:48:02;;;;;;;3.20;1.15;;;;;;;;;;5090436;28;20103;-54
2024/03/29 01:50:29;;;;;;;2.05;0.60;;;;;;;;;;5090586;28;20361;-51
2024/03/29 01:52:55;;;;;;;3.90;0.80;;;;;;;;;;5093630;28;20498;-53
2024/03/29 01:55:21;;;;;;;3.20;1.13;;;;;;;;;;5093625;28;20032;-52
2024/03/29 01:57:47;;;;;;;1.35;0.88;;;;;;;;;;5093396;28;20524;-51
2024/03/29 02:00:19;;;;;;;0.95;0.85;;;;;;;;;;5093575;28;20034;-57
2024/03/29 02:02:45;;;;;;;3.78;0.77;;;;;;;;;;5092696;28;20020;-54
2024/03/29 02:05:11;;;;;;;6.40;1.23;;;;;;;;;;5090106;28;20032;-53
2024/03/29 02:07:37;;;;;;;2.63;1.13;;;;;;;;;;5090463;28;20107;-53
2024/03/29 02:10:03;;;;;;;1.38;0.80;;;;;;;;;;5089509;28;20043;-54
2024/03/29 02:12:29;;;;;;;7.25;1.10;;;;;;;;;;5093009;28;20036;-53
2024/03/29 02:14:55;;;;;;;3.42;1.20;;;;;;;;;;5083987;28;20037;-53
2024/03/29 02:17:21;;;;;;;2.45;0.98;;;;;;;;;;5091304;28;20035;-54
2024/03/29 02:19:47;;;;;;;1.60;0.90;;;;;;;;;;5093124;28;20585;-54
2024/03/29 02:22:16;;;;;;;2.47;1.00;;;;;;;;;;5092985;28;20130;-51
2024/03/29 02:24:42;;;;;;;5.63;1.30;;;;;;;;;;5084618;28;20024;-52
2024/03/29 02:27:08;;;;;;;4.63;1.00;;;;;;;;;;5092940;28;20480;-53
2024/03/29 02:29:36;;;;;;;2.38;0.98;;;;;;;;;;5092841;28;20024;-51
2024/03/29 02:32:05;;;;;;;3.63;1.60;;;;;;;;;;5082166;28;20039;-53
2024/03/29 02:34:31;;;;;;;4.22;1.23;;;;;;;;;;5092502;28;20032;-53
2024/03/29 02:36:58;;;;;;;2.97;1.38;;;;;;;;;;5092776;28;20086;-52
2024/03/29 02:39:25;;;;;;;3.35;0.77;;;;;;;;;;5092395;28;20052;-53
2024/03/29 02:41:51;;;;;;;2.80;1.10;;;;;;;;;;5087035;28;20476;-53
2024/03/29 02:44:17;;;;;;;3.83;1.20;;;;;;;;;;5094168;28;20016;-52
2024/03/29 02:46:43;;;;;;;3.72;1.30;;;;;;;;;;5091004;28;20025;-51
2024/03/29 02:49:09;;;;;;;5.03;1.05;;;;;;;;;;5099688;28;20039;-51
2024/03/29 02:51:35;;;;;;;4.10;1.13;;;;;;;;;;5092804;28;20032;-51
2024/03/29 02:54:01;;;;;;;2.35;1.17;;;;;;;;;;5092317;28;20032;-52
2024/03/29 02:56:27;;;;;;;1.33;0.93;;;;;;;;;;5091986;28;20555;-56
2024/03/29 02:58:53;;;;;;;6.03;1.27;;;;;;;;;;5089420;28;20601;-52
2024/03/29 03:01:20;;;;;;;1.77;1.10;;;;;;;;;;5092542;28;20032;-52
2024/03/29 03:04:10;;;;;;;5.25;1.30;;;;;;;;;;5092226;28;20092;-52
2024/03/29 03:06:36;;;;;;;3.17;1.20;;;;;;;;;;5088242;28;20048;-53
2024/03/29 03:11:47;;;;;;;3.42;1.20;;;;;;;;;;5081334;28;20093;-56
2024/03/29 03:14:13;;;;;;;2.08;0.98;;;;;;;;;;5091328;28;20431;-56
2024/03/29 03:16:39;;;;;;;3.45;1.30;;;;;;;;;;5085722;28;20400;-55
2024/03/29 03:19:05;;;;;;;3.85;1.40;;;;;;;;;;5100552;28;20085;-58
2024/03/29 03:21:31;;;;;;;2.60;1.40;;;;;;;;;;5091803;28;20089;-59
2024/03/29 03:23:57;;;;;;;3.50;1.40;;;;;;;;;;5090480;28;20024;-59
2024/03/29 03:26:23;;;;;;;1.73;1.02;;;;;;;;;;5092164;28;20032;-59
2024/03/29 03:28:49;;;;;;;4.88;1.25;;;;;;;;;;5091719;28;20495;-58
2024/03/29 03:31:15;;;;;;;6.88;1.35;;;;;;;;;;5091800;28;20535;-59
2024/03/29 03:33:40;;;;;;;2.08;1.10;;;;;;;;;;5091693;28;20054;-58
2024/03/29 03:36:07;;;;;;;2.42;1.23;;;;;;;;;;5091952;28;20039;-59
2024/03/29 03:38:34;;;;;;;3.72;1.40;;;;;;;;;;5090712;28;20383;-58
2024/03/29 03:41:00;;;;;;;7.53;1.30;;;;;;;;;;5090931;28;20395;-59
2024/03/29 03:43:26;;;;;;;2.30;1.27;;;;;;;;;;5094295;28;20028;-58
2024/03/29 03:45:52;;;;;;;6.30;1.30;;;;;;;;;;5091886;28;20025;-58
2024/03/29 03:48:18;;;;;;;8.05;1.10;;;;;;;;;;5090633;28;20664;-58
2024/03/29 03:50:44;;;;;;;3.60;1.60;;;;;;;;;;5091939;28;20412;-58
2024/03/29 03:53:10;;;;;;;4.05;1.02;;;;;;;;;;5090759;28;20025;-59
2024/03/29 03:55:40;;;;;;;3.70;1.33;;;;;;;;;;5091770;28;20035;-58
2024/03/29 03:58:05;;;;;;;4.78;1.65;;;;;;;;;;5073926;28;20052;-59
2024/03/29 04:00:32;;;;;;;2.28;1.08;;;;;;;;;;5089592;28;20032;-58
2024/03/29 04:02:58;;;;;;;3.67;1.40;;;;;;;;;;5093486;28;20506;-59
2024/03/29 04:05:24;;;;;;;5.03;1.20;;;;;;;;;;5095677;28;20032;-59
2024/03/29 04:07:50;;;;;;;3.30;1.20;;;;;;;;;;5093703;28;20034;-58
2024/03/29 04:10:16;;;;;;;2.90;1.25;;;;;;;;;;5095640;28;20392;-58
2024/03/29 04:12:42;;;;;;;2.08;1.10;;;;;;;;;;5094763;28;20028;-58
2024/03/29 04:15:08;;;;;;;2.33;1.20;;;;;;;;;;5091816;28;20043;-59
2024/03/29 04:17:35;;;;;;;4.50;1.60;;;;;;;;;;5089425;28;20036;-59
2024/03/29 04:20:01;;;;;;;2.85;1.48;;;;;;;;;;5093301;28;20561;-58
2024/03/29 04:22:32;;;;;;;6.05;1.52;;;;;;;;;;5091664;28;20049;-58
2024/03/29 04:24:58;;;;;;;3.80;1.40;;;;;;;;;;5095178;28;20413;-59
2024/03/29 04:27:24;;;;;;;2.78;1.25;;;;;;;;;;5095617;28;20387;-52
2024/03/29 04:29:53;;;;;;;4.22;1.77;;;;;;;;;;5095333;28;20081;-54
2024/03/29 04:32:19;;;;;;;6.20;1.40;;;;;;;;;;5083281;28;20122;-52
2024/03/29 04:34:49;;;;;;;1.90;1.25;;;;;;;;;;5100575;28;20063;-54
2024/03/29 04:37:15;;;;;;;2.78;1.10;;;;;;;;;;5095343;28;20032;-54
2024/03/29 04:39:42;;;;;;;5.25;1.17;;;;;;;;;;5090838;28;20388;-53
2024/03/29 04:42:08;;;;;;;5.70;1.20;;;;;;;;;;5096755;28;20233;-53
2024/03/29 04:44:34;;;;;;;3.13;1.05;;;;;;;;;;5098059;28;20024;-54
2024/03/29 04:47:01;;;;;;;2.90;1.23;;;;;;;;;;5093888;28;20032;-52
2024/03/29 04:49:33;;;;;;;4.55;1.65;;;;;;;;;;5094060;28;20128;-52
2024/03/29 04:51:59;;;;;;;6.03;1.60;;;;;;;;;;5094547;28;20054;-55
2024/03/29 04:54:25;;;;;;;2.80;1.00;;;;;;;;;;5094114;28;20544;-55
2024/03/29 04:56:51;;;;;;;2.05;1.42;;;;;;;;;;5094422;28;20028;-53
2024/03/29 04:59:17;;;;;;;2.17;1.40;;;;;;;;;;5094593;28;20035;-54
2024/03/29 05:01:46;;;;;;;3.25;1.40;;;;;;;;;;5094081;28;20073;-56
2024/03/29 05:04:16;;;;;;;2.70;1.17;;;;;;;;;;5083190;28;20034;-54
2024/03/29 05:06:42;;;;;;;6.82;1.20;;;;;;;;;;5088654;28;20098;-53
2024/03/29 05:09:11;;;;;;;1.88;1.10;;;;;;;;;;5093244;28;20032;-53
2024/03/29 05:11:37;;;;;;;8.45;1.10;;;;;;;;;;5092478;28;20039;-53
2024/03/29 05:14:04;;;;;;;4.93;1.45;;;;;;;;;;5092865;28;20110;-53
2024/03/29 05:16:30;;;;;;;1.88;1.00;;;;;;;;;;5093488;28;20077;-54
2024/03/29 05:18:56;;;;;;;2.47;1.13;;;;;;;;;;5092623;28;20034;-54
2024/03/29 05:21:22;;;;;;;4.22;0.88;;;;;;;;;;5091987;28;20052;-54
2024/03/29 05:23:48;;;;;;;3.80;0.95;;;;;;;;;;5088054;28;20032;-54
2024/03/29 05:26:14;;;;;;;1.65;1.02;;;;;;;;;;5083772;28;20081;-54
2024/03/29 05:28:39;;;;;;;2.22;0.98;;;;;;;;;;5090164;28;20016;-55
2024/03/29 05:31:15;;;;;;;1.95;1.00;;;;;;;;;;5092641;28;20032;-55
2024/03/29 05:33:41;;;;;;;5.47;1.50;;;;;;;;;;5092977;28;20038;-53
2024/03/29 05:36:10;;;;;;;4.80;0.90;;;;;;;;;;5090028;28;20568;-54
2024/03/29 05:38:36;;;;;;;2.63;1.02;;;;;;;;;;5083401;28;20028;-52
2024/03/29 05:41:02;;;;;;;0.80;0.70;;;;;;;;;;5093186;28;20031;-55
2024/03/29 05:43:28;;;;;;;8.80;1.10;;;;;;;;;;5090199;28;20066;-54
2024/03/29 05:45:54;;;;;;;3.35;1.00;;;;;;;;;;5092608;28;20024;-53
2024/03/29 05:48:20;;;;;;;1.75;0.60;;;;;;;;;;5093072;28;20020;-54
2024/03/29 05:50:46;;;;;;;3.80;1.17;;;;;;;;;;5098830;28;20028;-55
2024/03/29 05:53:12;;;;;;;2.05;0.95;;;;;;;;;;5092214;28;20396;-54
2024/03/29 05:55:38;;;;;;;6.25;0.82;;;;;;;;;;5094777;28;20027;-53
2024/03/29 05:58:06;;;;;;;2.28;1.17;;;;;;;;;;5092504;28;20032;-56
2024/03/29 06:00:34;;;;;;;1.95;1.02;;;;;;;;;;5090228;28;20111;-54
2024/03/29 06:03:02;;;;;;;0.88;0.65;;;;;;;;;;5091675;28;20170;-56
2024/03/29 06:05:28;;;;;;;1.63;1.08;;;;;;;;;;5091117;28;20020;-53
2024/03/29 06:07:54;;;;;;;1.50;0.70;;;;;;;;;;5090767;28;20024;-54
2024/03/29 06:10:20;;;;;;;2.25;0.85;;;;;;;;;;5092053;28;20028;-53
2024/03/29 06:12:46;;;;;;;4.60;1.02;;;;;;;;;;5090743;28;20024;-53
2024/03/29 06:17:57;;;;;;;6.22;1.20;;;;;;;;;;5092300;28;20055;-55
2024/03/29 06:20:23;;;;;;;3.38;0.90;;;;;;;;;;5089815;28;20037;-53
2024/03/29 06:22:49;;;;;;;3.78;0.98;;;;;;;;;;5091226;28;20101;-55
2024/03/29 06:25:15;;;;;;;0.77;0.43;;;;;;;;;;5091525;28;20024;-55
2024/03/29 06:27:43;;;;;;;4.75;0.88;;;;;;;;;;5092094;28;20020;-55
2024/03/29 06:30:09;;;;;;;1.67;0.82;;;;;;;;;;5084459;28;20032;-54
2024/03/29 06:32:36;;;;;;;1.83;0.70;;;;;;;;;;5091568;28;20104;-53
2024/03/29 06:35:02;;;;;;;2.15;0.77;;;;;;;;;;5090013;28;20478;-54
2024/03/29 06:37:29;;;;;;;1.63;0.68;;;;;;;;;;5092195;28;20032;-54
2024/03/29 06:39:55;;;;;;;3.70;0.80;;;;;;;;;;5091455;28;20059;-54
2024/03/29 06:42:21;;;;;;;2.08;0.73;;;;;;;;;;5091516;28;20472;-53
2024/03/29 06:44:47;;;;;;;3.22;0.60;;;;;;;;;;5091591;28;20111;-55
2024/03/29 06:47:13;;;;;;;3.40;0.80;;;;;;;;;;5091358;28;20472;-55
2024/03/29 06:49:39;;;;;;;3.15;0.80;;;;;;;;;;5091784;28;20031;-56
2024/03/29 06:52:05;;;;;;;1.67;0.80;;;;;;;;;;5091539;28;20028;-56
2024/03/29 06:54:32;;;;;;;4.57;1.58;;;;;;;;;;5091104;28;20042;-56
2024/03/29 06:56:58;;;;;;;1.80;0.80;;;;;;;;;;5090504;28;20553;-56
2024/03/29 06:59:24;;;;;;;2.03;0.70;;;;;;;;;;5091181;28;20772;-56
2024/03/29 07:01:54;;;;;;;3.08;0.90;;;;;;;;;;5087848;28;20066;-56
2024/03/29 07:04:20;;;;;;;2.65;1.00;;;;;;;;;;5081380;28;20020;-56
2024/03/29 07:06:47;;;;;;;5.90;1.10;;;;;;;;;;5088392;28;20035;-56
2024/03/29 07:09:14;;;;;;;0.63;0.60;;;;;;;;;;5090203;28;20407;-53
2024/03/29 07:11:40;;;;;;;1.10;0.80;;;;;;;;;;5091073;28;20016;-56
2024/03/29 07:14:06;;;;;;;1.02;0.60;;;;;;;;;;5089245;28;20450;-55
2024/03/29 07:16:32;;;;;;;4.53;0.80;;;;;;;;;;5091122;28;20507;-56
2024/03/29 07:18:58;;;;;;;2.60;1.00;;;;;;;;;;5088088;28;20032;-56
2024/03/29 07:21:24;;;;;;;4.55;0.98;;;;;;;;;;5088393;28;20032;-56
2024/03/29 07:23:51;;;;;;;2.83;0.60;;;;;;;;;;5088557;28;20024;-55
2024/03/29 07:26:17;;;;;;;2.30;0.90;;;;;;;;;;5085025;28;20032;-56
2024/03/29 07:28:43;;;;;;;1.98;0.60;;;;;;;;;;5089606;28;20031;-56
2024/03/29 07:31:09;;;;;;;2.15;0.98;;;;;;;;;;5091087;28;20038;-55
2024/03/29 07:33:35;;;;;;;2.40;0.60;;;;;;;;;;5089553;28;20051;-56
2024/03/29 07:36:01;;;;;;;1.98;0.70;;;;;;;;;;5089240;28;20097;-56
2024/03/29 07:38:27;;;;;;;5.93;1.05;;;;;;;;;;5089007;28;20523;-56
2024/03/29 07:40:54;;;;;;;3.35;1.00;;;;;;;;;;5089054;28;20078;-56
2024/03/29 07:43:21;;;;;;;1.83;0.60;;;;;;;;;;5094375;28;20023;-56
2024/03/29 07:45:47;;;;;;;3.10;0.90;;;;;;;;;;5094999;28;20480;-56
2024/03/29 07:48:14;;;;;;;2.90;0.85;;;;;;;;;;5096604;28;20028;-55
2024/03/29 07:50:41;;;;;;;2.13;0.60;;;;;;;;;;5093401;28;20084;-54
2024/03/29 07:53:07;;;;;;;0.82;0.50;;;;;;;;;;5097022;28;20066;-55
2024/03/29 07:55:33;;;;;;;2.05;0.57;;;;;;;;;;5097118;28;20039;-56
2024/03/29 07:57:59;;;;;;;1.83;0.52;;;;;;;;;;5096982;28;20031;-58
2024/03/29 08:00:26;;;;;;;1.35;0.60;;;;;;;;;;5095662;28;20905;-58
2024/03/29 08:02:53;;;;;;;1.08;0.60;;;;;;;;;;5089925;28;20027;-59
2024/03/29 08:05:19;;;;;;;3.80;0.90;;;;;;;;;;5093780;28;20500;-58
2024/03/29 08:07:45;;;;;;;1.58;0.70;;;;;;;;;;5092040;28;20142;-58
2024/03/29 08:10:11;;;;;;;2.25;0.75;;;;;;;;;;5094544;28;20391;-58
2024/03/29 08:12:37;;;;;;;3.85;0.73;;;;;;;;;;5092401;28;20456;-58
2024/03/29 08:15:04;;;;;;;1.00;0.55;;;;;;;;;;5094397;28;20047;-58
2024/03/29 08:17:30;;;;;;;2.40;0.68;;;;;;;;;;5093049;28;20398;-56
2024/03/29 08:19:56;;;;;;;2.15;1.00;;;;;;;;;;5090921;28;20024;-58
2024/03/29 08:22:22;;;;;;;1.02;0.60;;;;;;;;;;5095207;28;20410;-56
2024/03/29 08:24:48;;;;;;;4.75;1.17;;;;;;;;;;5090592;28;20025;-57
2024/03/29 08:27:14;;;;;;;1.92;0.70;;;;;;;;;;5092169;28;20117;-57
2024/03/29 08:29:43;;;;;;;4.72;1.30;;;;;;;;;;5092236;28;20026;-59
2024/03/29 08:32:10;;;;;;;1.65;0.80;;;;;;;;;;5090690;28;20463;-57
2024/03/29 08:34:36;;;;;;;1.63;0.80;;;;;;;;;;5095562;28;20088;-58
2024/03/29 08:37:05;;;;;;;2.97;0.90;;;;;;;;;;5094994;28;20498;-59
2024/03/29 08:39:32;;;;;;;2.88;0.75;;;;;;;;;;5094771;28;20036;-58
2024/03/29 08:42:05;;;;;;;1.92;0.90;;;;;;;;;;5096979;28;20472;-58
2024/03/29 08:44:35;;;;;;;5.50;1.10;;;;;;;;;;5089802;28;20038;-58
2024/03/29 08:47:02;;;;;;;1.35;0.68;;;;;;;;;;5086228;28;20967;-58
2024/03/29 08:49:28;;;;;;;1.38;0.60;;;;;;;;;;5089755;28;20047;-57
2024/03/29 08:51:54;;;;;;;2.60;0.75;;;;;;;;;;5091533;28;20028;-56
2024/03/29 08:54:20;;;;;;;2.10;0.60;;;;;;;;;;5090728;28;20028;-58
2024/03/29 08:56:46;;;;;;;1.95;0.57;;;;;;;;;;5090712;28;20055;-58
2024/03/29 08:59:14;;;;;;;2.53;1.00;;;;;;;;;;5086157;28;20062;-59
2024/03/29 09:01:42;;;;;;;2.95;0.68;;;;;;;;;;5088865;28;20103;-59
2024/03/29 09:04:11;;;;;;;2.80;0.80;;;;;;;;;;5091368;28;20082;-58
2024/03/29 09:06:37;;;;;;;4.75;0.75;;;;;;;;;;5089171;28;20062;-58
2024/03/29 09:09:03;;;;;;;2.08;0.93;;;;;;;;;;5085797;28;20024;-56
2024/03/29 09:11:29;;;;;;;1.75;0.80;;;;;;;;;;5087619;28;20174;-56
2024/03/29 09:13:56;;;;;;;2.10;0.95;;;;;;;;;;5093090;28;20093;-56
2024/03/29 09:16:22;;;;;;;2.95;0.60;;;;;;;;;;5082134;28;20032;-55
2024/03/29 09:18:48;;;;;;;2.20;0.60;;;;;;;;;;5090762;28;20036;-56
2024/03/29 09:21:14;;;;;;;3.78;0.77;;;;;;;;;;5088326;28;20060;-55
2024/03/29 09:23:41;;;;;;;4.18;0.77;;;;;;;;;;5092017;28;20373;-56
2024/03/29 09:26:07;;;;;;;2.70;0.80;;;;;;;;;;5092871;28;20020;-55
2024/03/29 09:28:36;;;;;;;2.90;0.88;;;;;;;;;;5092859;28;20444;-55
2024/03/29 09:31:03;;;;;;;2.40;0.60;;;;;;;;;;5093969;28;20032;-56
2024/03/29 09:33:29;;;;;;;2.25;0.82;;;;;;;;;;5087642;28;20082;-57
2024/03/29 09:35:55;;;;;;;1.77;0.88;;;;;;;;;;5091406;28;20028;-56
2024/03/29 09:38:21;;;;;;;2.50;0.80;;;;;;;;;;5093228;28;20484;-56
2024/03/29 09:40:50;;;;;;;2.13;0.55;;;;;;;;;;5087420;28;20020;-56
2024/03/29 09:43:17;;;;;;;2.15;0.60;;;;;;;;;;5095472;28;20062;-56
2024/03/29 09:45:43;;;;;;;1.73;0.70;;;;;;;;;;5089633;28;20024;-57
2024/03/29 09:48:09;;;;;;;1.35;0.55;;;;;;;;;;5090821;28;20020;-56
2024/03/29 09:50:36;;;;;;;3.10;0.52;;;;;;;;;;5091000;28;20024;-56
2024/03/29 09:53:02;;;;;;;1.25;0.70;;;;;;;;;;5092805;28;20036;-56
2024/03/29 09:55:29;;;;;;;1.98;0.40;;;;;;;;;;5092781;28;20063;-56
2024/03/29 09:57:56;;;;;;;1.58;0.63;;;;;;;;;;5092844;28;20040;-57
2024/03/29 10:00:22;;;;;;;3.55;0.80;;;;;;;;;;5093020;28;20102;-56
2024/03/29 10:02:50;;;;;;;1.48;0.47;;;;;;;;;;5088849;28;20104;-56
2024/03/29 10:05:16;;;;;;;1.45;0.50;;;;;;;;;;5085376;28;20031;-56
2024/03/29 10:07:43;;;;;;;1.25;0.60;;;;;;;;;;5084977;28;20024;-56
2024/03/29 10:10:11;;;;;;;3.67;0.68;;;;;;;;;;5090106;28;20548;-56
2024/03/29 10:12:37;;;;;;;1.63;0.70;;;;;;;;;;5090142;28;20070;-55
2024/03/29 10:15:14;;;;;;;2.47;0.85;;;;;;;;;;5090277;28;20028;-56
2024/03/29 10:17:40;;;;;;;4.40;0.70;;;;;;;;;;5086957;28;20027;-58
2024/03/29 10:20:06;;;;;;;6.53;0.70;;;;;;;;;;5083990;28;20479;-56
2024/03/29 10:22:43;;;;;;;1.83;0.90;;;;;;;;;;5083940;28;20055;-56
2024/03/29 10:25:09;;;;;;;4.47;0.80;;;;;;;;;;5082838;28;20552;-56
2024/03/29 10:27:35;;;;;;;3.33;0.73;;;;;;;;;;5081880;28;20103;-55
2024/03/29 10:30:01;;;;;;;1.05;0.55;;;;;;;;;;5087161;28;20099;-56
2024/03/29 10:32:28;;;;;;;1.65;0.60;;;;;;;;;;5081092;28;20040;-55
2024/03/29 10:34:54;;;;;;;1.98;0.60;;;;;;;;;;5079356;28;20029;-55
2024/03/29 10:37:26;;;;;;;1.25;0.68;;;;;;;;;;5079339;28;20480;-56
2024/03/29 10:39:58;;;;;;;3.03;0.80;;;;;;;;;;5086452;28;20035;-55
2024/03/29 10:42:27;;;;;;;2.25;0.52;;;;;;;;;;5077410;28;20518;-57
2024/03/29 10:44:53;;;;;;;1.67;0.70;;;;;;;;;;5083438;28;20028;-55
2024/03/29 10:47:20;;;;;;;2.92;1.23;;;;;;;;;;5091459;28;20472;-55
2024/03/29 10:49:50;;;;;;;1.40;0.65;;;;;;;;;;5082745;28;20553;-56
2024/03/29 10:52:17;;;;;;;1.52;0.47;;;;;;;;;;5085539;28;20025;-55
2024/03/29 10:54:47;;;;;;;1.05;0.65;;;;;;;;;;5090858;28;20123;-56
2024/03/29 10:57:25;;;;;;;0.90;0.60;;;;;;;;;;5086655;28;20500;-56
2024/03/29 10:59:54;;;;;;;1.17;0.52;;;;;;;;;;5088891;28;20570;-55
2024/03/29 11:02:44;;;;;;;2.15;0.73;;;;;;;;;;5083974;28;20476;-56
2024/03/29 11:05:12;;;;;;;4.03;0.88;;;;;;;;;;5079281;28;20032;-55
2024/03/29 11:07:41;;;;;;;1.15;0.63;;;;;;;;;;5084674;28;20042;-55
2024/03/29 11:10:09;;;;;;;2.83;0.57;;;;;;;;;;5078875;28;20067;-55
2024/03/29 11:12:40;;;;;;;3.00;0.88;;;;;;;;;;5086991;28;20046;-55
2024/03/29 11:15:11;;;;;;;2.92;0.70;;;;;;;;;;5083122;28;20036;-55
2024/03/29 11:17:37;;;;;;;1.10;0.68;;;;;;;;;;5090286;28;20036;-56
2024/03/29 11:20:04;;;;;;;1.90;1.00;;;;;;;;;;5085215;28;20039;-55
2024/03/29 11:22:30;;;;;;;1.42;0.75;;;;;;;;;;5090596;28;20036;-55
2024/03/29 11:24:57;;;;;;;2.00;0.70;;;;;;;;;;5085303;28;20047;-55
2024/03/29 11:27:24;;;;;;;3.08;1.08;;;;;;;;;;5097184;28;20164;-55
2024/03/29 11:29:50;;;;;;;1.95;0.70;;;;;;;;;;5091746;28;20020;-58
2024/03/29 11:32:30;;;;;;;2.50;0.80;;;;;;;;;;5087673;28;20494;-58
2024/03/29 11:34:58;;;;;;;1.05;0.60;;;;;;;;;;5086991;28;20032;-59
2024/03/29 11:37:29;;;;;;;3.75;0.80;;;;;;;;;;5087405;28;20040;-58
2024/03/29 11:39:55;;;;;;;1.30;0.60;;;;;;;;;;5081270;28;20068;-59
2024/03/29 11:42:36;;;;;;;0.98;0.60;;;;;;;;;;5084031;28;20028;-59
2024/03/29 11:45:01;;;;;;;2.78;1.10;;;;;;;;;;5077404;28;20055;-58
2024/03/29 11:47:28;;;;;;;3.65;0.85;;;;;;;;;;5084881;28;20146;-59
2024/03/29 11:49:58;;;;;;;4.30;0.68;;;;;;;;;;5083873;28;20020;-59
2024/03/29 11:52:26;;;;;;;1.83;0.57;;;;;;;;;;5081346;28;20032;-59
2024/03/29 11:54:54;;;;;;;1.90;0.80;;;;;;;;;;5087724;28;20028;-59
2024/03/29 11:57:20;;;;;;;1.60;0.60;;;;;;;;;;5089999;28;20028;-59
2024/03/29 11:59:46;;;;;;;2.22;0.57;;;;;;;;;;5100391;28;20434;-59
2024/03/29 12:02:14;;;;;;;2.97;0.85;;;;;;;;;;5090743;28;20074;-59
2024/03/29 12:04:41;;;;;;;1.35;0.50;;;;;;;;;;5083236;28;20487;-59
2024/03/29 12:07:07;;;;;;;1.70;0.80;;;;;;;;;;5089129;28;20823;-59
2024/03/29 12:09:33;;;;;;;1.08;0.77;;;;;;;;;;5083397;28;20123;-58
2024/03/29 12:12:05;;;;;;;2.08;0.60;;;;;;;;;;5081307;28;20024;-59
2024/03/29 12:14:35;;;;;;;1.30;0.50;;;;;;;;;;5080740;28;20524;-59
2024/03/29 12:17:01;;;;;;;2.78;0.82;;;;;;;;;;5087789;28;20036;-59
2024/03/29 12:19:27;;;;;;;2.08;0.65;;;;;;;;;;5082942;28;20100;-59
2024/03/29 12:21:54;;;;;;;1.85;0.50;;;;;;;;;;5081157;28;20113;-59
2024/03/29 12:24:20;;;;;;;1.95;0.90;;;;;;;;;;5081883;28;20356;-59
2024/03/29 12:26:49;;;;;;;2.78;1.10;;;;;;;;;;5087115;28;20396;-59
2024/03/29 12:29:15;;;;;;;2.22;0.70;;;;;;;;;;5092499;28;20472;-59
2024/03/29 12:31:41;;;;;;;2.17;0.70;;;;;;;;;;5094050;28;20035;-58
2024/03/29 12:34:07;;;;;;;1.63;0.93;;;;;;;;;;5089589;28;20117;-59
2024/03/29 12:36:33;;;;;;;0.90;0.50;;;;;;;;;;5083338;28;20025;-59
2024/03/29 12:39:02;;;;;;;1.90;0.55;;;;;;;;;;5092490;28;20109;-59
2024/03/29 12:41:29;;;;;;;4.60;0.70;;;;;;;;;;5090134;28;20032;-59
2024/03/29 12:43:56;;;;;;;2.70;0.68;;;;;;;;;;5081376;28;20080;-59
2024/03/29 12:46:22;;;;;;;1.90;0.65;;;;;;;;;;5087394;28;20024;-58
2024/03/29 12:48:48;;;;;;;1.63;0.68;;;;;;;;;;5091759;28;20039;-59
2024/03/29 12:51:19;;;;;;;0.85;0.60;;;;;;;;;;5090373;28;20036;-56
2024/03/29 12:53:45;;;;;;;2.05;0.80;;;;;;;;;;5087806;28;20024;-58
2024/03/29 12:56:11;;;;;;;2.15;0.65;;;;;;;;;;5088512;28;20020;-60
2024/03/29 12:58:37;;;;;;;1.88;0.70;;;;;;;;;;5088101;28;20032;-58
2024/03/29 13:01:03;;;;;;;2.28;1.60;;;;;;;;;;5089387;28;20187;-59
2024/03/29 13:03:29;;;;;;;2.05;0.80;;;;;;;;;;5091627;28;20467;-60
2024/03/29 13:05:55;;;;;;;0.90;0.50;;;;;;;;;;5085647;28;20028;-59
2024/03/29 13:08:21;;;;;;;1.92;0.68;;;;;;;;;;5086862;28;20031;-60
2024/03/29 13:10:47;;;;;;;2.88;0.63;;;;;;;;;;5087907;28;20500;-60
2024/03/29 13:13:13;;;;;;;3.42;0.90;;;;;;;;;;5086932;28;20027;-58
2024/03/29 13:15:42;;;;;;;2.30;0.77;;;;;;;;;;5084831;28;20115;-59
2024/03/29 13:18:08;;;;;;;3.40;1.00;;;;;;;;;;5084782;28;20036;-60
2024/03/29 13:20:40;;;;;;;6.32;3.35;;;;;;;;;;5086018;28;20048;-60
2024/03/29 13:23:06;;;;;;;3.95;1.33;;;;;;;;;;5086518;28;20449;-59
2024/03/29 13:25:32;;;;;;;1.15;0.50;;;;;;;;;;5087243;28;20038;-59
2024/03/29 13:27:58;;;;;;;1.70;0.57;;;;;;;;;;5085489;28;20043;-59
2024/03/29 13:30:25;;;;;;;1.38;0.50;;;;;;;;;;5088293;28;20035;-60
2024/03/29 13:32:51;;;;;;;1.25;0.63;;;;;;;;;;5081432;28;20563;-58
2024/03/29 13:35:21;;;;;;;1.13;0.57;;;;;;;;;;5090030;28;20498;-59
2024/03/29 13:37:47;;;;;;;3.13;0.60;;;;;;;;;;5093619;28;20024;-60
2024/03/29 13:40:13;;;;;;;1.92;0.50;;;;;;;;;;5082447;28;20036;-60
2024/03/29 13:42:39;;;;;;;3.00;0.80;;;;;;;;;;5090288;28;20495;-59
2024/03/29 13:45:06;;;;;;;2.72;0.95;;;;;;;;;;5086192;28;20032;-60
2024/03/29 13:47:37;;;;;;;0.95;0.52;;;;;;;;;;5090311;28;20050;-55
2024/03/29 13:50:03;;;;;;;1.67;0.40;;;;;;;;;;5087337;28;20481;-56
2024/03/29 13:52:30;;;;;;;1.33;0.47;;;;;;;;;;5091453;28;20491;-55
2024/03/29 13:54:56;;;;;;;1.98;0.60;;;;;;;;;;5090857;28;20086;-54
2024/03/29 13:57:22;;;;;;;2.38;0.70;;;;;;;;;;5088447;28;20036;-55
2024/03/29 13:59:48;;;;;;;2.60;0.50;;;;;;;;;;5092846;28;20031;-56
2024/03/29 14:02:17;;;;;;;2.97;0.60;;;;;;;;;;5090572;28;20127;-56
2024/03/29 14:04:44;;;;;;;1.55;0.40;;;;;;;;;;5089530;28;20055;-57
2024/03/29 14:07:11;;;;;;;0.95;0.40;;;;;;;;;;5081899;28;20025;-57
2024/03/29 14:09:40;;;;;;;1.20;0.50;;;;;;;;;;5087838;28;20044;-58
2024/03/29 14:12:06;;;;;;;1.88;0.57;;;;;;;;;;5089436;28;20080;-58
2024/03/29 14:14:33;;;;;;;0.95;0.40;;;;;;;;;;5088804;28;20032;-55
2024/03/29 14:17:03;;;;;;;1.48;0.77;;;;;;;;;;5092095;28;20032;-56
2024/03/29 14:19:29;;;;;;;0.82;0.43;;;;;;;;;;5091474;28;20566;-56
2024/03/29 14:21:55;;;;;;;2.65;0.60;;;;;;;;;;5092433;28;20093;-55
2024/03/29 14:24:24;;;;;;;2.30;0.60;;;;;;;;;;5080801;28;20268;-55
2024/03/29 14:26:50;;;;;;;1.98;0.80;;;;;;;;;;5092608;28;20480;-56
2024/03/29 14:29:18;;;;;;;1.40;0.52;;;;;;;;;;5092211;28;20023;-56
2024/03/29 14:31:44;;;;;;;0.98;0.40;;;;;;;;;;5092197;28;20039;-56
2024/03/29 14:34:10;;;;;;;2.33;0.47;;;;;;;;;;5090513;28;20419;-56
2024/03/29 14:36:36;;;;;;;2.17;0.40;;;;;;;;;;5092409;28;20107;-55
2024/03/29 14:39:02;;;;;;;0.95;0.50;;;;;;;;;;5090912;28;20404;-56
2024/03/29 14:41:29;;;;;;;1.30;0.57;;;;;;;;;;5092170;28;20024;-55
2024/03/29 14:43:56;;;;;;;1.83;0.70;;;;;;;;;;5099453;28;20031;-55
2024/03/29 14:46:22;;;;;;;2.00;0.20;;;;;;;;;;5091705;28;20093;-55